createdAt,value
2019-04-11T00:01:53.444Z,19.20
2019-04-11T00:04:26.188Z,18.87
2019-04-11T00:06:58.145Z,17.93
2019-04-11T00:09:30.428Z,17.83
2019-04-11T00:12:02.273Z,18.50
2019-04-11T00:14:34.397Z,18.67
2019-04-11T00:17:06.118Z,18.20
2019-04-11T00:19:38.175Z,17.83
2019-04-11T00:22:11.024Z,17.70
2019-04-11T00:24:43.347Z,17.13
2019-04-11T00:27:15.082Z,18.77
2019-04-11T00:29:47.320Z,21.03
2019-04-11T00:32:19.232Z,15.85
2019-04-11T00:34:51.241Z,15.80
2019-04-11T00:37:23.247Z,15.40
2019-04-11T00:39:56.292Z,16.50
2019-04-11T00:42:30.421Z,14.70
2019-04-11T00:45:03.426Z,14.90
2019-04-11T00:47:38.155Z,15.10
2019-04-11T00:50:12.696Z,15.80
2019-04-11T00:52:45.635Z,15.33
2019-04-11T00:55:17.761Z,15.13
2019-04-11T00:57:50.637Z,14.43
2019-04-11T01:00:23.346Z,15.17
2019-04-11T01:02:55.892Z,16.27
2019-04-11T01:05:27.751Z,14.50
2019-04-11T01:07:59.740Z,15.20
2019-04-11T01:10:32.029Z,15.63
2019-04-11T01:13:04.983Z,15.60
2019-04-11T01:15:39.081Z,16.20
2019-04-11T01:18:11.904Z,15.57
2019-04-11T01:20:44.183Z,14.40
2019-04-11T01:23:16.205Z,15.77
2019-04-11T01:25:48.723Z,16.40
2019-04-11T01:28:20.954Z,16.00
2019-04-11T01:31:06.443Z,18.47
2019-04-11T01:33:38.375Z,17.10
2019-04-11T01:36:12.182Z,15.87
2019-04-11T01:38:48.401Z,17.87
2019-04-11T01:41:20.533Z,17.93
2019-04-11T01:44:00.993Z,17.30
2019-04-11T01:46:29.826Z,16.87
2019-04-11T01:49:17.537Z,15.93
2019-04-11T01:51:49.934Z,16.40
2019-04-11T01:54:21.848Z,17.40
2019-04-11T01:56:54.210Z,17.50
2019-04-11T01:59:27.243Z,18.63
2019-04-11T02:02:09.567Z,17.67
2019-04-11T02:04:46.059Z,17.53
2019-04-11T02:07:18.820Z,18.65
2019-04-11T02:09:50.704Z,17.30
2019-04-11T02:12:23.505Z,16.90
2019-04-11T02:14:55.581Z,18.53
2019-04-11T02:17:27.711Z,17.03
2019-04-11T02:20:00.626Z,17.63
2019-04-11T02:23:04.551Z,17.33
2019-04-11T02:25:52.533Z,17.17
2019-04-11T02:28:24.673Z,17.20
2019-04-11T02:30:57.531Z,16.33
2019-04-11T02:33:30.651Z,16.87
2019-04-11T02:36:04.601Z,15.47
2019-04-11T02:38:37.507Z,15.63
2019-04-11T02:41:12.465Z,16.23
2019-04-11T02:43:46.699Z,16.27
2019-04-11T02:46:28.337Z,17.07
2019-04-11T02:48:52.327Z,16.07
2019-04-11T02:51:26.849Z,15.33
2019-04-11T02:53:59.398Z,16.10
2019-04-11T02:56:33.438Z,15.80
2019-04-11T02:59:05.523Z,15.37
2019-04-11T03:01:39.849Z,15.83
2019-04-11T03:04:12.933Z,15.27
2019-04-11T03:06:45.773Z,15.60
2019-04-11T03:09:19.540Z,15.20
2019-04-11T03:11:51.611Z,15.40
2019-04-11T03:14:25.066Z,14.93
2019-04-11T03:17:08.419Z,15.50
2019-04-11T03:19:43.935Z,15.63
2019-04-11T03:22:05.833Z,14.90
2019-04-11T03:24:38.644Z,14.63
2019-04-11T03:27:11.960Z,14.47
2019-04-11T03:29:45.816Z,14.47
2019-04-11T03:33:02.225Z,14.63
2019-04-11T03:35:45.726Z,14.67
2019-04-11T03:37:54.039Z,16.17
2019-04-11T03:40:22.473Z,15.37
2019-04-11T03:42:46.259Z,14.23
2019-04-11T03:45:27.516Z,14.53
2019-04-11T03:47:57.666Z,16.03
2019-04-11T03:50:17.460Z,16.32
2019-04-11T03:52:49.546Z,16.30
2019-04-11T03:55:23.385Z,16.87
2019-04-11T03:57:56.774Z,18.13
2019-04-11T04:00:34.040Z,17.97
2019-04-11T04:03:04.605Z,17.77
2019-04-11T04:05:38.619Z,20.63
2019-04-11T04:08:10.886Z,17.17
2019-04-11T04:11:03.844Z,17.67
2019-04-11T04:13:39.111Z,18.30
2019-04-11T04:16:27.479Z,16.95
2019-04-11T04:19:20.298Z,17.77
2019-04-11T04:22:07.945Z,17.77
2019-04-11T04:24:41.322Z,18.83
2019-04-11T04:27:15.306Z,17.60
2019-04-11T04:29:51.258Z,19.83
2019-04-11T04:32:22.736Z,18.00
2019-04-11T04:34:56.322Z,18.53
2019-04-11T04:37:29.612Z,18.95
2019-04-11T04:40:19.419Z,18.60
2019-04-11T04:42:40.390Z,19.20
2019-04-11T04:45:10.121Z,16.93
2019-04-11T04:47:48.961Z,18.00
2019-04-11T04:50:18.190Z,16.90
2019-04-11T04:52:51.542Z,17.53
2019-04-11T04:55:25.817Z,16.37
2019-04-11T04:57:58.231Z,16.03
2019-04-11T05:00:32.161Z,16.17
2019-04-11T05:03:05.472Z,17.07
2019-04-11T05:05:38.265Z,16.77
2019-04-11T05:08:11.184Z,16.50
2019-04-11T05:10:44.965Z,16.77
2019-04-11T05:13:17.493Z,16.37
2019-04-11T05:16:02.865Z,16.93
2019-04-11T05:18:23.687Z,15.97
2019-04-11T05:20:56.978Z,17.60
2019-04-11T05:23:29.702Z,17.27
2019-04-11T05:26:01.689Z,16.73
2019-04-11T05:28:33.262Z,17.73
2019-04-11T05:31:06.178Z,16.47
2019-04-11T05:33:39.106Z,17.33
2019-04-11T05:36:10.845Z,16.52
2019-04-11T05:38:42.542Z,18.23
2019-04-11T05:41:15.289Z,18.62
2019-04-11T05:43:49.642Z,18.10
2019-04-11T05:46:31.064Z,19.17
2019-04-11T05:49:13.487Z,18.53
2019-04-11T05:51:58.150Z,19.80
2019-04-11T05:54:33.210Z,20.53
2019-04-11T05:57:07.054Z,19.48
2019-04-11T05:59:39.582Z,19.70
2019-04-11T06:02:21.503Z,18.37
2019-04-11T06:05:02.844Z,20.60
2019-04-11T06:07:57.258Z,20.73
2019-04-11T06:10:31.654Z,23.67
2019-04-11T06:13:16.411Z,24.63
2019-04-11T06:15:51.396Z,25.10
2019-04-11T06:18:44.729Z,24.50
2019-04-11T06:21:49.024Z,25.63
2019-04-11T06:24:45.805Z,23.32
2019-04-11T06:27:31.190Z,23.32
2019-04-11T06:30:17.914Z,22.77
2019-04-11T06:32:58.517Z,24.97
2019-04-11T06:35:42.079Z,26.07
2019-04-11T06:38:48.013Z,26.33
2019-04-11T06:41:54.830Z,25.57
2019-04-11T06:45:02.589Z,25.80
2019-04-11T06:47:53.512Z,24.67
2019-04-11T06:50:39.825Z,24.63
2019-04-11T06:53:13.389Z,23.87
2019-04-11T06:56:04.226Z,24.47
2019-04-11T06:58:39.828Z,25.50
2019-04-11T07:01:16.149Z,25.35
2019-04-11T07:03:51.629Z,25.63
2019-04-11T07:06:27.287Z,25.90
2019-04-11T07:09:27.166Z,24.00
2019-04-11T07:12:03.955Z,22.40
2019-04-11T07:14:50.146Z,23.73
2019-04-11T07:17:40.337Z,23.87
2019-04-11T07:20:37.862Z,24.93
2019-04-11T07:23:28.427Z,24.53
2019-04-11T07:26:31.442Z,25.33
2019-04-11T07:29:23.921Z,26.10
2019-04-11T07:32:16.158Z,25.77
2019-04-11T07:35:05.755Z,28.73
2019-04-11T07:37:44.877Z,29.20
2019-04-11T07:40:35.276Z,25.48
2019-04-11T07:43:19.054Z,23.83
2019-04-11T07:46:09.987Z,21.90
2019-04-11T07:48:42.680Z,22.17
2019-04-11T07:51:34.353Z,21.07
2019-04-11T07:54:13.739Z,23.50
2019-04-11T07:56:58.677Z,25.07
2019-04-11T08:00:04.411Z,23.60
2019-04-11T08:03:01.928Z,23.47
2019-04-11T08:05:56.617Z,27.13
2019-04-11T08:08:51.399Z,25.80
2019-04-11T08:11:48.231Z,24.00
2019-04-11T08:14:38.341Z,27.58
2019-04-11T08:17:36.850Z,25.62
2019-04-11T08:20:25.640Z,26.13
2019-04-11T08:23:08.226Z,27.77
2019-04-11T08:25:55.728Z,26.23
2019-04-11T08:28:28.850Z,26.17
2019-04-11T08:31:28.939Z,26.40
2019-04-11T08:34:04.959Z,25.35
2019-04-11T08:36:54.904Z,24.30
2019-04-11T08:39:35.309Z,24.87
2019-04-11T08:42:25.406Z,25.67
2019-04-11T08:44:58.523Z,24.67
2019-04-11T08:47:46.816Z,25.83
2019-04-11T08:50:16.403Z,27.27
2019-04-11T08:53:07.269Z,26.87
2019-04-11T08:55:56.230Z,27.33
2019-04-11T08:58:47.395Z,27.27
2019-04-11T09:01:20.382Z,27.60
2019-04-11T09:04:15.284Z,26.40
2019-04-11T09:06:47.394Z,26.30
2019-04-11T09:09:36.247Z,26.53
2019-04-11T09:12:11.993Z,27.40
2019-04-11T09:15:14.878Z,28.30
2019-04-11T09:17:58.918Z,27.47
2019-04-11T09:20:41.748Z,27.90
2019-04-11T09:23:15.813Z,29.10
2019-04-11T09:26:05.121Z,28.20
2019-04-11T09:28:42.106Z,29.20
2019-04-11T09:31:36.301Z,28.53
2019-04-11T09:34:25.934Z,28.77
2019-04-11T09:37:13.650Z,30.90
2019-04-11T09:40:05.804Z,29.40
2019-04-11T09:42:47.181Z,30.93
2019-04-11T09:45:37.531Z,30.63
2019-04-11T09:48:44.389Z,31.47
2019-04-11T09:51:54.091Z,30.00
2019-04-11T09:55:03.047Z,28.47
2019-04-11T09:57:37.648Z,29.02
2019-04-11T10:00:28.941Z,27.37
2019-04-11T10:03:04.408Z,28.63
2019-04-11T10:05:58.704Z,28.17
2019-04-11T10:08:37.478Z,27.30
2019-04-11T10:11:43.314Z,27.23
2019-04-11T10:14:19.729Z,25.20
2019-04-11T10:17:10.672Z,27.37
2019-04-11T10:19:48.703Z,25.90
2019-04-11T10:22:50.392Z,24.77
2019-04-11T10:25:35.176Z,23.77
2019-04-11T10:28:27.150Z,22.30
2019-04-11T10:31:08.524Z,20.43
2019-04-11T10:33:59.611Z,19.20
2019-04-11T10:36:51.505Z,19.53
2019-04-11T10:39:42.176Z,19.07
2019-04-11T10:42:15.590Z,18.10
2019-04-11T10:45:06.737Z,18.17
2019-04-11T10:47:40.816Z,18.53
2019-04-11T10:50:32.247Z,17.07
2019-04-11T10:53:05.326Z,17.90
2019-04-11T10:55:56.354Z,17.00
2019-04-11T10:58:51.129Z,17.07
2019-04-11T11:01:50.880Z,17.75
2019-04-11T11:04:27.492Z,18.60
2019-04-11T11:07:10.194Z,17.33
2019-04-11T11:09:52.947Z,18.33
2019-04-11T11:12:38.857Z,17.70
2019-04-11T11:15:17.713Z,18.50
2019-04-11T11:21:05.481Z,17.77
2019-04-11T11:23:54.396Z,19.33
2019-04-11T11:26:35.693Z,16.60
2019-04-11T11:29:26.513Z,17.77
2019-04-11T11:32:03.026Z,17.83
2019-04-11T11:34:52.331Z,18.20
2019-04-11T11:37:42.702Z,17.07
2019-04-11T11:40:52.096Z,17.25
2019-04-11T11:43:29.330Z,17.03
2019-04-11T11:46:25.564Z,16.90
2019-04-11T11:49:12.276Z,15.10
2019-04-11T11:52:08.984Z,15.33
2019-04-11T11:54:48.056Z,15.53
2019-04-11T11:57:44.910Z,17.00
2019-04-11T12:00:23.466Z,16.52
2019-04-11T12:03:02.389Z,17.60
2019-04-11T12:05:45.616Z,16.93
2019-04-11T12:08:45.257Z,17.75
2019-04-11T12:11:15.719Z,18.17
2019-04-11T12:14:12.039Z,18.93
2019-04-11T12:17:01.349Z,18.47
2019-04-11T12:19:47.319Z,18.63
2019-04-11T12:22:10.820Z,22.00
2019-04-11T12:24:45.269Z,18.07
2019-04-11T12:27:41.563Z,18.00
2019-04-11T12:30:26.602Z,18.95
2019-04-11T12:33:17.319Z,19.17
2019-04-11T12:36:09.922Z,18.03
2019-04-11T12:39:00.780Z,16.87
2019-04-11T12:41:42.774Z,18.30
2019-04-11T12:44:51.952Z,17.63
2019-04-11T12:47:44.965Z,21.03
2019-04-11T12:50:39.831Z,16.90
2019-04-11T12:53:16.806Z,18.50
2019-04-11T12:56:06.100Z,17.00
2019-04-11T12:58:43.634Z,16.30
2019-04-11T13:01:43.200Z,16.63
2019-04-11T13:04:37.463Z,14.13
2019-04-11T13:07:28.081Z,14.90
2019-04-11T13:10:06.569Z,15.27
2019-04-11T13:12:45.459Z,13.70
2019-04-11T13:15:37.088Z,15.03
2019-04-11T13:18:26.723Z,15.80
2019-04-11T13:21:11.780Z,16.03
2019-04-11T13:24:11.623Z,13.80
2019-04-11T13:27:18.664Z,14.67
2019-04-11T13:30:14.160Z,13.63
2019-04-11T13:33:08.977Z,14.63
2019-04-11T13:36:05.754Z,13.90
2019-04-11T13:38:51.679Z,15.17
2019-04-11T13:41:41.279Z,14.57
2019-04-11T13:44:21.829Z,13.85
2019-04-11T13:47:12.345Z,13.20
2019-04-11T13:50:04.204Z,14.27
2019-04-11T13:53:04.623Z,13.07
2019-04-11T13:55:39.094Z,13.07
2019-04-11T13:58:38.807Z,13.87
2019-04-11T14:01:15.634Z,15.60
2019-04-11T14:04:03.023Z,13.53
2019-04-11T14:06:36.950Z,14.10
2019-04-11T14:09:30.510Z,13.67
2019-04-11T14:12:05.006Z,13.43
2019-04-11T14:14:41.953Z,12.30
2019-04-11T14:17:29.615Z,13.00
2019-04-11T14:20:28.542Z,12.53
2019-04-11T14:23:13.791Z,12.63
2019-04-11T14:26:11.285Z,12.83
2019-04-11T14:28:46.490Z,13.87
2019-04-11T14:31:33.149Z,13.90
2019-04-11T14:34:23.679Z,13.60
2019-04-11T14:37:23.755Z,14.27
2019-04-11T14:40:03.796Z,14.23
2019-04-11T14:42:54.808Z,14.20
2019-04-11T14:45:50.225Z,14.10
2019-04-11T14:48:34.464Z,14.05
2019-04-11T14:51:18.493Z,14.38
2019-04-11T14:54:11.968Z,14.43
2019-04-11T14:56:48.012Z,14.87
2019-04-11T14:59:38.836Z,15.08
2019-04-11T15:02:17.960Z,16.57
2019-04-11T15:05:18.345Z,16.70
2019-04-11T15:07:50.535Z,16.47
2019-04-11T15:10:39.949Z,15.53
2019-04-11T15:13:24.299Z,16.30
2019-04-11T15:16:27.091Z,17.27
2019-04-11T15:19:01.553Z,17.30
2019-04-11T15:21:50.886Z,16.53
2019-04-11T15:24:23.485Z,17.30
2019-04-11T15:27:32.156Z,17.97
2019-04-11T15:30:06.141Z,17.53
2019-04-11T15:32:59.902Z,18.70
2019-04-11T15:35:31.691Z,18.02
2019-04-11T15:38:23.315Z,18.03
2019-04-11T15:40:59.046Z,19.17
2019-04-11T15:43:51.508Z,19.55
2019-04-11T15:46:25.598Z,18.95
2019-04-11T15:49:21.218Z,19.80
2019-04-11T15:52:07.110Z,19.83
2019-04-11T15:54:58.621Z,20.60
2019-04-11T15:57:43.612Z,20.47
2019-04-11T16:00:50.602Z,19.85
2019-04-11T16:03:24.779Z,20.97
2019-04-11T16:06:14.221Z,19.90
2019-04-11T16:08:50.686Z,20.17
2019-04-11T16:11:46.352Z,20.95
2019-04-11T16:14:20.733Z,20.43
2019-04-11T16:17:01.671Z,23.27
2019-04-11T16:19:52.474Z,24.33
2019-04-11T16:22:58.410Z,25.23
2019-04-11T16:25:30.173Z,25.73
2019-04-11T16:28:30.362Z,27.07
2019-04-11T16:31:02.516Z,25.40
2019-04-11T16:33:56.099Z,26.37
2019-04-11T16:36:47.224Z,24.73
2019-04-11T16:39:52.030Z,23.83
2019-04-11T16:42:37.923Z,24.25
2019-04-11T16:45:32.224Z,25.23
2019-04-11T16:48:02.866Z,23.40
2019-04-11T16:50:34.898Z,22.60
2019-04-11T16:53:10.682Z,36.73
2019-04-11T16:55:43.197Z,26.67
2019-04-11T16:58:16.988Z,22.00
2019-04-11T17:00:52.063Z,22.57
2019-04-11T17:03:24.751Z,23.13
2019-04-11T17:06:03.105Z,22.37
2019-04-11T17:08:56.124Z,24.00
2019-04-11T17:11:29.024Z,22.27
2019-04-11T17:14:00.973Z,22.40
2019-04-11T17:16:32.665Z,24.07
2019-04-11T17:19:05.526Z,22.63
2019-04-11T17:21:43.517Z,23.33
2019-04-11T17:24:16.724Z,24.02
2019-04-11T17:26:46.497Z,23.70
2019-04-11T17:29:20.254Z,24.87
2019-04-11T17:31:55.694Z,25.47
2019-04-11T17:34:25.282Z,25.33
2019-04-11T17:36:56.838Z,24.87
2019-04-11T17:39:28.638Z,28.00
2019-04-11T17:42:00.945Z,25.23
2019-04-11T17:44:33.185Z,24.83
2019-04-11T17:47:05.962Z,24.70
2019-04-11T17:49:37.638Z,22.40
2019-04-11T17:52:10.492Z,22.07
2019-04-11T17:54:42.188Z,35.97
2019-04-11T17:57:14.502Z,44.70
2019-04-11T17:59:48.662Z,25.90
2019-04-11T18:02:20.430Z,25.27
2019-04-11T18:04:52.241Z,25.97
2019-04-11T18:07:24.077Z,25.07
2019-04-11T18:09:56.764Z,26.57
2019-04-11T18:12:28.642Z,27.03
2019-04-11T18:15:02.357Z,25.20
2019-04-11T18:17:35.583Z,25.63
2019-04-11T18:20:07.615Z,26.67
2019-04-11T18:22:39.898Z,34.23
2019-04-11T18:25:11.899Z,28.30
2019-04-11T18:27:43.608Z,26.27
2019-04-11T18:30:17.389Z,27.90
2019-04-11T18:32:49.722Z,26.20
2019-04-11T18:35:21.683Z,28.32
2019-04-11T18:37:53.662Z,28.57
2019-04-11T18:40:25.502Z,29.60
2019-04-11T18:42:58.449Z,28.63
2019-04-11T18:45:30.341Z,27.50
2019-04-11T18:48:02.194Z,28.10
2019-04-11T18:50:34.657Z,29.13
2019-04-11T18:53:06.431Z,29.00
2019-04-11T18:55:38.434Z,27.67
2019-04-11T18:58:10.558Z,28.05
2019-04-11T19:00:42.742Z,26.40
2019-04-11T19:03:14.788Z,27.90
2019-04-11T19:05:46.366Z,27.00
2019-04-11T19:08:18.329Z,26.40
2019-04-11T19:10:52.179Z,28.90
2019-04-11T19:13:23.997Z,28.83
2019-04-11T19:15:56.039Z,29.53
2019-04-11T19:18:28.010Z,33.25
2019-04-11T19:21:00.482Z,32.13
2019-04-11T19:23:32.457Z,31.63
2019-04-11T19:26:04.286Z,34.10
2019-04-11T19:28:36.220Z,35.33
2019-04-11T19:31:12.176Z,34.98
2019-04-11T19:33:44.349Z,35.80
2019-04-11T19:36:16.031Z,35.80
2019-04-11T19:38:47.978Z,36.37
2019-04-11T19:41:19.770Z,36.38
2019-04-11T19:43:51.550Z,34.43
2019-04-11T19:46:23.392Z,35.50
2019-04-11T19:48:59.056Z,36.83
2019-04-11T19:51:29.536Z,34.97
2019-04-11T19:54:03.300Z,37.77
2019-04-11T19:56:42.783Z,37.03
2019-04-11T19:59:14.331Z,37.83
2019-04-11T20:01:45.994Z,39.97
2019-04-11T20:04:21.733Z,38.17
2019-04-11T20:06:53.904Z,35.87
2019-04-11T20:09:25.639Z,37.33
2019-04-11T20:11:57.956Z,37.83
2019-04-11T20:14:34.041Z,47.57
2019-04-11T20:17:04.179Z,41.97
2019-04-11T20:19:35.860Z,35.37
2019-04-11T20:22:09.206Z,31.70
2019-04-11T20:24:45.927Z,33.28
2019-04-11T20:27:15.012Z,33.58
2019-04-11T20:29:50.978Z,33.90
2019-04-11T20:32:22.013Z,33.38
2019-04-11T20:34:53.990Z,30.80
2019-04-11T20:37:25.646Z,33.63
2019-04-11T20:39:57.994Z,30.47
2019-04-11T20:42:29.749Z,133.60
2019-04-11T20:45:02.006Z,48.03
2019-04-11T20:47:35.622Z,32.20
2019-04-11T20:50:09.018Z,34.57
2019-04-11T20:52:40.932Z,35.37
2019-04-11T20:55:13.112Z,49.03
2019-04-11T20:57:45.316Z,46.67
2019-04-11T21:00:18.240Z,40.80
2019-04-11T21:02:50.180Z,38.47
2019-04-11T21:05:22.080Z,37.88
2019-04-11T21:07:53.914Z,35.97
2019-04-11T21:10:25.813Z,37.43
2019-04-11T21:12:57.860Z,38.00
2019-04-11T21:15:29.784Z,34.60
2019-04-11T21:18:02.214Z,37.73
2019-04-11T21:20:35.092Z,40.50
2019-04-11T21:23:07.152Z,44.40
2019-04-11T21:25:38.789Z,45.08
2019-04-11T21:28:10.419Z,44.95
2019-04-11T21:30:42.292Z,47.30
2019-04-11T21:33:14.279Z,49.50
2019-04-11T21:35:46.270Z,49.07
2019-04-11T21:38:18.134Z,48.90
2019-04-11T21:40:51.425Z,53.97
2019-04-11T21:43:23.659Z,50.52
2019-04-11T21:45:55.805Z,49.93
2019-04-11T21:48:29.633Z,49.67
2019-04-11T21:51:01.432Z,45.93
2019-04-11T21:53:36.818Z,45.33
2019-04-11T21:56:06.760Z,45.20
2019-04-11T21:58:38.861Z,47.37
2019-04-11T22:01:14.084Z,48.07
2019-04-11T22:03:47.474Z,50.07
2019-04-11T22:06:21.247Z,48.77
2019-04-11T22:08:53.136Z,49.57
2019-04-11T22:11:24.831Z,43.35
2019-04-11T22:13:56.451Z,43.97
2019-04-11T22:16:28.014Z,39.90
2019-04-11T22:19:00.066Z,40.10
2019-04-11T22:21:32.023Z,36.77
2019-04-11T22:24:03.837Z,37.37
2019-04-11T22:26:36.451Z,34.23
2019-04-11T22:29:08.103Z,33.63
2019-04-11T22:31:40.223Z,35.57
2019-04-11T22:34:22.363Z,34.80
2019-04-11T22:36:54.286Z,34.40
